sensor_id;sensor_type;location;lat;lon;timestamp;pressure;altitude;pressure_sealevel;temperature;humidity
80945;BME280;70400;50.934;11.590;2023-07-13T00:00:04;99758.91;;;22.68;40.87
80945;BME280;70400;50.934;11.590;2023-07-13T00:01:04;99759.97;;;22.67;40.93
80945;BME280;70400;50.934;11.590;2023-07-13T00:01:55;99761.81;;;22.67;40.68
80945;BME280;70400;50.934;11.590;2023-07-13T00:02:46;99758.97;;;22.62;41.22
80945;BME280;70400;50.934;11.590;2023-07-13T00:03:37;99755.47;;;22.61;41.00
80945;BME280;70400;50.934;11.590;2023-07-13T00:04:32;99758.91;;;22.68;41.05
80945;BME280;70400;50.934;11.590;2023-07-13T00:05:23;99765.09;;;22.69;41.37
80945;BME280;70400;50.934;11.590;2023-07-13T00:06:15;99759.03;;;22.73;40.65
80945;BME280;70400;50.934;11.590;2023-07-13T00:07:07;99762.19;;;22.70;41.05
80945;BME280;70400;50.934;11.590;2023-07-13T00:08:00;99762.66;;;22.67;41.27
80945;BME280;70400;50.934;11.590;2023-07-13T00:08:51;99764.13;;;22.63;41.13
80945;BME280;70400;50.934;11.590;2023-07-13T00:09:42;99762.66;;;22.67;41.05
80945;BME280;70400;50.934;11.590;2023-07-13T00:10:33;99759.50;;;22.70;41.37
80945;BME280;70400;50.934;11.590;2023-07-13T00:11:24;99769.16;;;22.60;40.88
80945;BME280;70400;50.934;11.590;2023-07-13T00:13:14;99768.75;;;22.44;41.67
80945;BME280;70400;50.934;11.590;2023-07-13T00:14:05;99776.09;;;22.49;42.10
80945;BME280;70400;50.934;11.590;2023-07-13T00:14:57;99774.31;;;22.43;42.23
80945;BME280;70400;50.934;11.590;2023-07-13T00:15:49;99776.19;;;22.42;42.31
80945;BME280;70400;50.934;11.590;2023-07-13T00:16:40;99781.34;;;22.44;42.31
80945;BME280;70400;50.934;11.590;2023-07-13T00:17:34;99783.44;;;22.42;42.21
80945;BME280;70400;50.934;11.590;2023-07-13T00:18:25;99789.50;;;22.37;42.47
80945;BME280;70400;50.934;11.590;2023-07-13T00:19:16;99787.84;;;22.36;42.41
80945;BME280;70400;50.934;11.590;2023-07-13T00:20:08;99781.19;;;22.39;42.47
80945;BME280;70400;50.934;11.590;2023-07-13T00:20:59;99787.75;;;22.43;42.48
80945;BME280;70400;50.934;11.590;2023-07-13T00:21:55;99795.31;;;22.34;42.69
80945;BME280;70400;50.934;11.590;2023-07-13T00:22:46;99789.94;;;22.34;42.68
80945;BME280;70400;50.934;11.590;2023-07-13T00:24:30;99791.78;;;22.33;42.36
80945;BME280;70400;50.934;11.590;2023-07-13T00:25:22;99797.75;;;22.36;42.59
80945;BME280;70400;50.934;11.590;2023-07-13T00:26:14;99790.00;;;22.27;42.95
80945;BME280;70400;50.934;11.590;2023-07-13T00:27:05;99790.00;;;22.27;42.49
80945;BME280;70400;50.934;11.590;2023-07-13T00:27:56;99795.84;;;22.24;42.25
80945;BME280;70400;50.934;11.590;2023-07-13T00:28:46;99795.25;;;22.22;42.84
80945;BME280;70400;50.934;11.590;2023-07-13T00:29:37;99793.38;;;22.23;42.34
80945;BME280;70400;50.934;11.590;2023-07-13T00:30:28;99794.19;;;22.23;42.25
80945;BME280;70400;50.934;11.590;2023-07-13T00:31:21;99791.66;;;22.28;41.98
80945;BME280;70400;50.934;11.590;2023-07-13T00:32:12;99796.81;;;22.30;41.97
80945;BME280;70400;50.934;11.590;2023-07-13T00:33:05;99797.03;;;22.28;41.78
80945;BME280;70400;50.934;11.590;2023-07-13T00:34:07;99795.03;;;22.24;42.22
80945;BME280;70400;50.934;11.590;2023-07-13T00:34:58;99791.13;;;22.20;42.00
80945;BME280;70400;50.934;11.590;2023-07-13T00:35:51;99799.63;;;22.17;42.21
80945;BME280;70400;50.934;11.590;2023-07-13T00:36:41;99802.69;;;22.20;42.27
80945;BME280;70400;50.934;11.590;2023-07-13T00:37:33;99797.47;;;22.25;42.17
80945;BME280;70400;50.934;11.590;2023-07-13T00:38:26;99795.75;;;22.31;42.68
80945;BME280;70400;50.934;11.590;2023-07-13T00:39:17;99790.63;;;22.29;42.41
80945;BME280;70400;50.934;11.590;2023-07-13T00:40:11;99798.13;;;22.21;42.24
80945;BME280;70400;50.934;11.590;2023-07-13T00:41:04;99795.97;;;22.11;42.84
80945;BME280;70400;50.934;11.590;2023-07-13T00:41:54;99792.75;;;22.21;42.79
80945;BME280;70400;50.934;11.590;2023-07-13T00:42:45;99797.97;;;22.16;42.67
80945;BME280;70400;50.934;11.590;2023-07-13T00:43:38;99796.28;;;22.21;42.55
80945;BME280;70400;50.934;11.590;2023-07-13T00:44:29;99800.41;;;22.24;42.57
80945;BME280;70400;50.934;11.590;2023-07-13T00:46:19;99793.63;;;22.21;42.48
80945;BME280;70400;50.934;11.590;2023-07-13T00:47:10;99790.09;;;22.21;42.71
80945;BME280;70400;50.934;11.590;2023-07-13T00:48:03;99793.81;;;22.20;42.84
80945;BME280;70400;50.934;11.590;2023-07-13T00:48:57;99793.03;;;22.13;42.62
80945;BME280;70400;50.934;11.590;2023-07-13T00:49:49;99784.00;;;22.07;42.82
80945;BME280;70400;50.934;11.590;2023-07-13T00:50:41;99793.69;;;22.08;42.93
80945;BME280;70400;50.934;11.590;2023-07-13T00:51:41;99783.09;;;22.13;42.75
80945;BME280;70400;50.934;11.590;2023-07-13T00:52:35;99782.81;;;22.03;42.77
80945;BME280;70400;50.934;11.590;2023-07-13T00:53:29;99785.06;;;22.06;42.85
80945;BME280;70400;50.934;11.590;2023-07-13T00:54:27;99782.66;;;21.98;42.72
80945;BME280;70400;50.934;11.590;2023-07-13T00:55:20;99788.03;;;21.98;43.14
80945;BME280;70400;50.934;11.590;2023-07-13T00:56:12;99785.69;;;21.83;43.36
80945;BME280;70400;50.934;11.590;2023-07-13T00:57:06;99795.78;;;21.87;43.58
80945;BME280;70400;50.934;11.590;2023-07-13T00:57:58;99798.91;;;21.84;43.26
80945;BME280;70400;50.934;11.590;2023-07-13T00:58:50;99793.00;;;21.76;43.29
80945;BME280;70400;50.934;11.590;2023-07-13T00:59:44;99797.13;;;21.78;43.45
80945;BME280;70400;50.934;11.590;2023-07-13T01:00:38;99791.75;;;21.78;43.30
80945;BME280;70400;50.934;11.590;2023-07-13T01:01:29;99798.97;;;21.78;43.65
80945;BME280;70400;50.934;11.590;2023-07-13T01:02:21;99804.06;;;21.86;43.62
80945;BME280;70400;50.934;11.590;2023-07-13T01:03:13;99801.16;;;21.87;43.36
80945;BME280;70400;50.934;11.590;2023-07-13T01:04:04;99795.63;;;21.82;43.45
80945;BME280;70400;50.934;11.590;2023-07-13T01:04:58;99797.69;;;21.80;43.23
80945;BME280;70400;50.934;11.590;2023-07-13T01:05:50;99797.81;;;21.67;43.18
80945;BME280;70400;50.934;11.590;2023-07-13T01:06:45;99792.91;;;21.64;43.29
80945;BME280;70400;50.934;11.590;2023-07-13T01:07:38;99794.31;;;21.66;42.60
80945;BME280;70400;50.934;11.590;2023-07-13T01:08:30;99790.28;;;21.57;42.63
80945;BME280;70400;50.934;11.590;2023-07-13T01:09:26;99792.75;;;21.59;42.62
80945;BME280;70400;50.934;11.590;2023-07-13T01:10:17;99790.88;;;21.59;42.79
80945;BME280;70400;50.934;11.590;2023-07-13T01:11:18;99788.91;;;21.48;42.30
80945;BME280;70400;50.934;11.590;2023-07-13T01:12:10;99788.59;;;21.63;42.71
80945;BME280;70400;50.934;11.590;2023-07-13T01:13:01;99786.94;;;21.62;42.08
80945;BME280;70400;50.934;11.590;2023-07-13T01:13:53;99791.53;;;21.55;42.46
80945;BME280;70400;50.934;11.590;2023-07-13T01:14:45;99785.75;;;21.58;42.43
80945;BME280;70400;50.934;11.590;2023-07-13T01:15:44;99794.16;;;21.61;42.46
80945;BME280;70400;50.934;11.590;2023-07-13T01:16:37;99793.56;;;21.59;42.56
80945;BME280;70400;50.934;11.590;2023-07-13T01:17:29;99795.59;;;21.64;42.46
80945;BME280;70400;50.934;11.590;2023-07-13T01:18:25;99795.78;;;21.62;42.19
80945;BME280;70400;50.934;11.590;2023-07-13T01:19:36;99803.03;;;21.62;42.26
80945;BME280;70400;50.934;11.590;2023-07-13T01:20:28;99803.19;;;21.67;42.27
80945;BME280;70400;50.934;11.590;2023-07-13T01:21:19;99791.13;;;21.58;42.22
80945;BME280;70400;50.934;11.590;2023-07-13T01:22:20;99801.25;;;21.56;42.20
80945;BME280;70400;50.934;11.590;2023-07-13T01:23:18;99797.13;;;21.53;42.11
80945;BME280;70400;50.934;11.590;2023-07-13T01:24:11;99796.00;;;21.42;42.23
80945;BME280;70400;50.934;11.590;2023-07-13T01:25:02;99791.78;;;21.53;42.39
80945;BME280;70400;50.934;11.590;2023-07-13T01:25:53;99798.13;;;21.59;42.26
80945;BME280;70400;50.934;11.590;2023-07-13T01:26:45;99797.13;;;21.53;42.23
80945;BME280;70400;50.934;11.590;2023-07-13T01:27:36;99801.44;;;21.54;42.07
80945;BME280;70400;50.934;11.590;2023-07-13T01:28:28;99795.28;;;21.54;42.06
80945;BME280;70400;50.934;11.590;2023-07-13T01:29:18;99806.94;;;21.41;42.68
80945;BME280;70400;50.934;11.590;2023-07-13T01:30:09;99805.69;;;21.37;42.55
80945;BME280;70400;50.934;11.590;2023-07-13T01:31:00;99802.41;;;21.35;42.57
80945;BME280;70400;50.934;11.590;2023-07-13T01:31:52;99802.41;;;21.35;42.33
80945;BME280;70400;50.934;11.590;2023-07-13T01:32:43;99801.06;;;21.19;43.06
80945;BME280;70400;50.934;11.590;2023-07-13T01:33:36;99799.25;;;21.13;42.86
80945;BME280;70400;50.934;11.590;2023-07-13T01:34:27;99803.28;;;21.29;42.93
80945;BME280;70400;50.934;11.590;2023-07-13T01:35:18;99802.00;;;21.31;42.83
80945;BME280;70400;50.934;11.590;2023-07-13T01:36:10;99800.81;;;21.27;42.69
80945;BME280;70400;50.934;11.590;2023-07-13T01:37:01;99797.28;;;21.27;42.83
80945;BME280;70400;50.934;11.590;2023-07-13T01:37:53;99791.88;;;21.40;42.72
80945;BME280;70400;50.934;11.590;2023-07-13T01:38:44;99791.03;;;21.39;42.37
80945;BME280;70400;50.934;11.590;2023-07-13T01:39:35;99791.44;;;21.36;42.64
80945;BME280;70400;50.934;11.590;2023-07-13T01:40:27;99784.22;;;21.37;42.47
80945;BME280;70400;50.934;11.590;2023-07-13T01:41:18;99792.09;;;21.32;42.72
80945;BME280;70400;50.934;11.590;2023-07-13T01:42:09;99790.03;;;21.40;42.32
80945;BME280;70400;50.934;11.590;2023-07-13T01:43:00;99788.56;;;21.38;42.35
80945;BME280;70400;50.934;11.590;2023-07-13T01:43:51;99789.66;;;21.30;42.41
80945;BME280;70400;50.934;11.590;2023-07-13T01:44:42;99788.16;;;21.41;42.35
80945;BME280;70400;50.934;11.590;2023-07-13T01:45:33;99780.56;;;21.31;42.51
80945;BME280;70400;50.934;11.590;2023-07-13T01:46:25;99784.72;;;21.27;42.88
80945;BME280;70400;50.934;11.590;2023-07-13T01:47:17;99782.97;;;21.14;42.97
80945;BME280;70400;50.934;11.590;2023-07-13T01:48:09;99776.56;;;21.15;43.38
80945;BME280;70400;50.934;11.590;2023-07-13T01:48:59;99779.44;;;21.14;43.56
80945;BME280;70400;50.934;11.590;2023-07-13T01:49:50;99774.00;;;21.27;43.03
80945;BME280;70400;50.934;11.590;2023-07-13T01:50:42;99769.00;;;21.31;43.06
80945;BME280;70400;50.934;11.590;2023-07-13T01:51:33;99765.78;;;21.22;42.97
80945;BME280;70400;50.934;11.590;2023-07-13T01:52:26;99777.09;;;20.99;43.88
80945;BME280;70400;50.934;11.590;2023-07-13T01:53:17;99772.44;;;20.81;44.17
80945;BME280;70400;50.934;11.590;2023-07-13T01:54:08;99776.84;;;20.69;44.38
80945;BME280;70400;50.934;11.590;2023-07-13T01:54:59;99777.69;;;20.63;44.78
80945;BME280;70400;50.934;11.590;2023-07-13T01:55:49;99779.56;;;20.55;44.99
80945;BME280;70400;50.934;11.590;2023-07-13T01:56:40;99790.50;;;20.54;45.20
80945;BME280;70400;50.934;11.590;2023-07-13T01:57:32;99790.50;;;20.54;45.09
80945;BME280;70400;50.934;11.590;2023-07-13T01:58:24;99782.88;;;20.51;45.54
80945;BME280;70400;50.934;11.590;2023-07-13T01:59:14;99784.97;;;20.42;45.46
80945;BME280;70400;50.934;11.590;2023-07-13T02:00:06;99790.31;;;20.42;45.76
80945;BME280;70400;50.934;11.590;2023-07-13T02:01:05;99781.63;;;20.53;45.32
80945;BME280;70400;50.934;11.590;2023-07-13T02:01:56;99786.38;;;20.51;45.05
80945;BME280;70400;50.934;11.590;2023-07-13T02:02:48;99783.53;;;20.46;45.14
80945;BME280;70400;50.934;11.590;2023-07-13T02:03:39;99787.47;;;20.37;45.33
80945;BME280;70400;50.934;11.590;2023-07-13T02:04:30;99789.97;;;20.32;45.67
80945;BME280;70400;50.934;11.590;2023-07-13T02:05:21;99790.56;;;20.34;45.82
80945;BME280;70400;50.934;11.590;2023-07-13T02:06:12;99780.28;;;20.31;45.93
80945;BME280;70400;50.934;11.590;2023-07-13T02:07:03;99781.78;;;20.72;45.13
80945;BME280;70400;50.934;11.590;2023-07-13T02:07:54;99781.88;;;20.90;44.47
80945;BME280;70400;50.934;11.590;2023-07-13T02:08:45;99789.28;;;20.95;44.59
80945;BME280;70400;50.934;11.590;2023-07-13T02:09:35;99789.72;;;20.92;44.07
80945;BME280;70400;50.934;11.590;2023-07-13T02:10:26;99789.22;;;20.70;44.77
80945;BME280;70400;50.934;11.590;2023-07-13T02:11:19;99790.47;;;20.67;44.42
80945;BME280;70400;50.934;11.590;2023-07-13T02:12:09;99802.00;;;20.68;44.90
80945;BME280;70400;50.934;11.590;2023-07-13T02:13:03;99802.66;;;20.50;45.07
80945;BME280;70400;50.934;11.590;2023-07-13T02:13:54;99805.56;;;20.48;45.54
80945;BME280;70400;50.934;11.590;2023-07-13T02:14:45;99800.59;;;20.52;45.21
80945;BME280;70400;50.934;11.590;2023-07-13T02:15:38;99802.81;;;20.68;44.81
80945;BME280;70400;50.934;11.590;2023-07-13T02:16:30;99801.22;;;20.54;45.17
80945;BME280;70400;50.934;11.590;2023-07-13T02:17:21;99805.72;;;20.67;45.05
80945;BME280;70400;50.934;11.590;2023-07-13T02:18:12;99808.66;;;20.58;45.37
80945;BME280;70400;50.934;11.590;2023-07-13T02:19:08;99809.84;;;20.63;45.10
80945;BME280;70400;50.934;11.590;2023-07-13T02:19:59;99816.88;;;20.50;45.48
80945;BME280;70400;50.934;11.590;2023-07-13T02:20:49;99819.78;;;20.42;46.10
80945;BME280;70400;50.934;11.590;2023-07-13T02:21:40;99815.34;;;20.23;46.68
80945;BME280;70400;50.934;11.590;2023-07-13T02:22:31;99814.31;;;20.17;46.94
80945;BME280;70400;50.934;11.590;2023-07-13T02:23:22;99818.25;;;20.01;47.33
80945;BME280;70400;50.934;11.590;2023-07-13T02:24:14;99823.63;;;19.88;47.51
80945;BME280;70400;50.934;11.590;2023-07-13T02:25:08;99821.38;;;19.78;48.04
80945;BME280;70400;50.934;11.590;2023-07-13T02:26:01;99828.56;;;19.84;48.14
80945;BME280;70400;50.934;11.590;2023-07-13T02:26:53;99832.69;;;19.87;47.86
80945;BME280;70400;50.934;11.590;2023-07-13T02:27:44;99830.63;;;19.89;47.83
80945;BME280;70400;50.934;11.590;2023-07-13T02:28:35;99831.88;;;19.93;47.25
80945;BME280;70400;50.934;11.590;2023-07-13T02:29:25;99825.91;;;19.91;47.34
80945;BME280;70400;50.934;11.590;2023-07-13T02:30:16;99824.44;;;20.08;47.27
80945;BME280;70400;50.934;11.590;2023-07-13T02:31:09;99818.78;;;20.30;46.62
80945;BME280;70400;50.934;11.590;2023-07-13T02:32:00;99815.94;;;20.25;47.02
80945;BME280;70400;50.934;11.590;2023-07-13T02:32:51;99816.97;;;20.30;46.54
80945;BME280;70400;50.934;11.590;2023-07-13T02:33:42;99818.44;;;20.13;46.99
80945;BME280;70400;50.934;11.590;2023-07-13T02:34:34;99818.66;;;20.05;47.17
80945;BME280;70400;50.934;11.590;2023-07-13T02:35:27;99809.38;;;20.14;46.59
80945;BME280;70400;50.934;11.590;2023-07-13T02:36:18;99808.31;;;20.22;46.79
80945;BME280;70400;50.934;11.590;2023-07-13T02:37:10;99808.31;;;20.22;46.94
80945;BME280;70400;50.934;11.590;2023-07-13T02:38:01;99806.94;;;19.99;47.00
80945;BME280;70400;50.934;11.590;2023-07-13T02:38:54;99806.31;;;19.97;47.39
80945;BME280;70400;50.934;11.590;2023-07-13T02:39:45;99809.63;;;19.86;47.55
80945;BME280;70400;50.934;11.590;2023-07-13T02:40:36;99815.22;;;19.78;47.70
80945;BME280;70400;50.934;11.590;2023-07-13T02:41:27;99809.25;;;19.82;47.96
80945;BME280;70400;50.934;11.590;2023-07-13T02:42:18;99816.44;;;19.88;47.76
80945;BME280;70400;50.934;11.590;2023-07-13T02:43:09;99815.41;;;19.76;48.10
80945;BME280;70400;50.934;11.590;2023-07-13T02:43:59;99809.44;;;19.74;48.26
80945;BME280;70400;50.934;11.590;2023-07-13T02:44:54;99819.94;;;19.69;47.83
80945;BME280;70400;50.934;11.590;2023-07-13T02:45:45;99819.09;;;19.55;47.99
80945;BME280;70400;50.934;11.590;2023-07-13T02:46:37;99824.44;;;19.55;47.66
80945;BME280;70400;50.934;11.590;2023-07-13T02:47:28;99822.19;;;19.45;48.52
80945;BME280;70400;50.934;11.590;2023-07-13T02:48:19;99821.56;;;19.57;48.17
80945;BME280;70400;50.934;11.590;2023-07-13T02:49:10;99818.47;;;19.53;48.30
80945;BME280;70400;50.934;11.590;2023-07-13T02:50:01;99829.78;;;19.42;49.08
80945;BME280;70400;50.934;11.590;2023-07-13T02:50:52;99826.31;;;19.41;48.84
80945;BME280;70400;50.934;11.590;2023-07-13T02:51:43;99831.22;;;19.38;48.95
80945;BME280;70400;50.934;11.590;2023-07-13T02:52:34;99827.31;;;19.34;48.75
80945;BME280;70400;50.934;11.590;2023-07-13T02:53:25;99833.69;;;19.33;49.07
80945;BME280;70400;50.934;11.590;2023-07-13T02:54:15;99829.38;;;19.38;49.00
80945;BME280;70400;50.934;11.590;2023-07-13T02:55:06;99828.97;;;19.41;48.84
80945;BME280;70400;50.934;11.590;2023-07-13T02:55:57;99823.81;;;19.53;48.73
80945;BME280;70400;50.934;11.590;2023-07-13T02:56:48;99830.63;;;19.62;48.47
80945;BME280;70400;50.934;11.590;2023-07-13T02:57:40;99834.34;;;19.68;48.05
80945;BME280;70400;50.934;11.590;2023-07-13T02:58:31;99831.84;;;19.66;49.20
80945;BME280;70400;50.934;11.590;2023-07-13T02:59:22;99834.75;;;19.65;49.57
80945;BME280;70400;50.934;11.590;2023-07-13T03:00:13;99843.56;;;19.45;49.75
80945;BME280;70400;50.934;11.590;2023-07-13T03:01:09;99835.94;;;19.36;49.92
80945;BME280;70400;50.934;11.590;2023-07-13T03:02:02;99834.09;;;19.29;49.66
80945;BME280;70400;50.934;11.590;2023-07-13T03:02:53;99838.41;;;19.24;49.53
80945;BME280;70400;50.934;11.590;2023-07-13T03:03:51;99838.59;;;19.09;49.94
80945;BME280;70400;50.934;11.590;2023-07-13T03:04:43;99839.81;;;19.13;50.02
80945;BME280;70400;50.934;11.590;2023-07-13T03:05:34;99839.44;;;19.29;49.39
80945;BME280;70400;50.934;11.590;2023-07-13T03:06:24;99840.03;;;19.18;49.60
80945;BME280;70400;50.934;11.590;2023-07-13T03:07:17;99851.72;;;19.11;50.18
80945;BME280;70400;50.934;11.590;2023-07-13T03:08:11;99849.06;;;19.11;50.06
80945;BME280;70400;50.934;11.590;2023-07-13T03:09:06;99855.25;;;19.11;49.90
80945;BME280;70400;50.934;11.590;2023-07-13T03:09:58;99854.19;;;19.05;50.57
80945;BME280;70400;50.934;11.590;2023-07-13T03:11:19;99850.88;;;18.97;50.63
80945;BME280;70400;50.934;11.590;2023-07-13T03:12:24;99842.69;;;18.98;50.22
80945;BME280;70400;50.934;11.590;2023-07-13T03:13:16;99848.00;;;18.92;51.00
80945;BME280;70400;50.934;11.590;2023-07-13T03:14:07;99845.31;;;18.92;50.58
80945;BME280;70400;50.934;11.590;2023-07-13T03:15:01;99840.59;;;18.94;50.84
80945;BME280;70400;50.934;11.590;2023-07-13T03:15:52;99842.47;;;18.93;50.90
80945;BME280;70400;50.934;11.590;2023-07-13T03:16:43;99845.34;;;18.98;50.66
80945;BME280;70400;50.934;11.590;2023-07-13T03:17:35;99843.06;;;18.95;50.84
80945;BME280;70400;50.934;11.590;2023-07-13T03:18:27;99843.28;;;18.94;50.75
80945;BME280;70400;50.934;11.590;2023-07-13T03:19:19;99846.97;;;18.93;50.71
80945;BME280;70400;50.934;11.590;2023-07-13T03:20:14;99840.38;;;18.89;51.00
80945;BME280;70400;50.934;11.590;2023-07-13T03:21:05;99848.59;;;18.80;51.15
80945;BME280;70400;50.934;11.590;2023-07-13T03:21:56;99850.41;;;18.80;51.18
80945;BME280;70400;50.934;11.590;2023-07-13T03:22:47;99847.94;;;18.78;50.89
80945;BME280;70400;50.934;11.590;2023-07-13T03:23:41;99851.63;;;18.77;51.25
80945;BME280;70400;50.934;11.590;2023-07-13T03:24:33;99850.38;;;18.73;50.84
80945;BME280;70400;50.934;11.590;2023-07-13T03:25:28;99855.38;;;18.90;50.63
80945;BME280;70400;50.934;11.590;2023-07-13T03:26:19;99855.38;;;18.90;50.80
80945;BME280;70400;50.934;11.590;2023-07-13T03:27:11;99860.31;;;18.93;50.66
80945;BME280;70400;50.934;11.590;2023-07-13T03:28:05;99866.50;;;18.93;50.89
80945;BME280;70400;50.934;11.590;2023-07-13T03:28:56;99864.06;;;19.05;50.38
80945;BME280;70400;50.934;11.590;2023-07-13T03:29:47;99868.84;;;19.16;50.06
80945;BME280;70400;50.934;11.590;2023-07-13T03:30:43;99867.81;;;19.24;49.71
80945;BME280;70400;50.934;11.590;2023-07-13T03:31:35;99871.13;;;19.26;50.03
80945;BME280;70400;50.934;11.590;2023-07-13T03:32:27;99872.97;;;19.32;49.96
80945;BME280;70400;50.934;11.590;2023-07-13T03:33:18;99878.31;;;19.25;49.91
80945;BME280;70400;50.934;11.590;2023-07-13T03:34:10;99874.81;;;19.25;50.09
80945;BME280;70400;50.934;11.590;2023-07-13T03:35:01;99880.38;;;19.23;50.09
80945;BME280;70400;50.934;11.590;2023-07-13T03:35:54;99879.72;;;19.15;50.32
80945;BME280;70400;50.934;11.590;2023-07-13T03:36:45;99874.13;;;19.03;50.57
80945;BME280;70400;50.934;11.590;2023-07-13T03:37:36;99869.56;;;18.83;51.39
80945;BME280;70400;50.934;11.590;2023-07-13T03:38:35;99872.41;;;18.75;51.71
80945;BME280;70400;50.934;11.590;2023-07-13T03:39:27;99869.03;;;18.66;52.16
80945;BME280;70400;50.934;11.590;2023-07-13T03:40:20;99866.75;;;18.63;51.82
80945;BME280;70400;50.934;11.590;2023-07-13T03:41:11;99871.28;;;18.70;51.79
80945;BME280;70400;50.934;11.590;2023-07-13T03:42:04;99870.78;;;18.81;51.66
80945;BME280;70400;50.934;11.590;2023-07-13T03:42:56;99868.28;;;18.79;51.60
80945;BME280;70400;50.934;11.590;2023-07-13T03:43:48;99868.53;;;18.84;51.49
80945;BME280;70400;50.934;11.590;2023-07-13T03:44:41;99867.88;;;18.76;51.79
80945;BME280;70400;50.934;11.590;2023-07-13T03:45:32;99869.50;;;18.77;51.81
80945;BME280;70400;50.934;11.590;2023-07-13T03:46:23;99869.78;;;18.89;51.41
80945;BME280;70400;50.934;11.590;2023-07-13T03:47:14;99868.09;;;18.87;51.73
80945;BME280;70400;50.934;11.590;2023-07-13T03:48:07;99870.63;;;18.96;51.58
80945;BME280;70400;50.934;11.590;2023-07-13T03:48:57;99876.19;;;19.01;51.23
80945;BME280;70400;50.934;11.590;2023-07-13T03:49:48;99878.66;;;19.02;51.05
80945;BME280;70400;50.934;11.590;2023-07-13T03:50:39;99881.69;;;18.93;51.12
80945;BME280;70400;50.934;11.590;2023-07-13T03:51:30;99872.22;;;18.83;51.66
80945;BME280;70400;50.934;11.590;2023-07-13T03:52:23;99878.03;;;19.00;51.32
80945;BME280;70400;50.934;11.590;2023-07-13T03:53:15;99878.50;;;19.17;50.80
80945;BME280;70400;50.934;11.590;2023-07-13T03:54:06;99876.81;;;19.09;50.90
80945;BME280;70400;50.934;11.590;2023-07-13T03:54:56;99870.41;;;18.97;51.39
80945;BME280;70400;50.934;11.590;2023-07-13T03:55:48;99879.03;;;18.93;51.44
80945;BME280;70400;50.934;11.590;2023-07-13T03:56:39;99871.72;;;19.21;51.14
80945;BME280;70400;50.934;11.590;2023-07-13T03:57:33;99873.66;;;19.74;49.70
80945;BME280;70400;50.934;11.590;2023-07-13T03:58:39;99866.41;;;20.14;48.29
80945;BME280;70400;50.934;11.590;2023-07-13T03:59:42;99870.06;;;20.47;47.27
80945;BME280;70400;50.934;11.590;2023-07-13T04:00:34;99872.91;;;20.72;46.76
80945;BME280;70400;50.934;11.590;2023-07-13T04:01:25;99874.19;;;21.08;45.82
80945;BME280;70400;50.934;11.590;2023-07-13T04:02:17;99873.84;;;21.29;45.41
80945;BME280;70400;50.934;11.590;2023-07-13T04:03:19;99879.34;;;21.48;44.69
80945;BME280;70400;50.934;11.590;2023-07-13T04:04:10;99874.41;;;21.70;44.20
80945;BME280;70400;50.934;11.590;2023-07-13T04:05:00;99881.97;;;21.79;44.06
80945;BME280;70400;50.934;11.590;2023-07-13T04:05:51;99876.34;;;22.31;42.86
80945;BME280;70400;50.934;11.590;2023-07-13T04:06:42;99873.38;;;22.76;41.50
80945;BME280;70400;50.934;11.590;2023-07-13T04:07:35;99868.75;;;22.65;41.89
80945;BME280;70400;50.934;11.590;2023-07-13T04:08:29;99873.59;;;22.74;41.89
80945;BME280;70400;50.934;11.590;2023-07-13T04:09:21;99871.28;;;22.78;41.49
80945;BME280;70400;50.934;11.590;2023-07-13T04:10:11;99875.06;;;23.07;41.03
80945;BME280;70400;50.934;11.590;2023-07-13T04:11:04;99881.31;;;23.19;40.62
80945;BME280;70400;50.934;11.590;2023-07-13T04:11:55;99879.75;;;23.42;40.22
80945;BME280;70400;50.934;11.590;2023-07-13T04:12:45;99878.94;;;23.53;39.76
80945;BME280;70400;50.934;11.590;2023-07-13T04:13:36;99876.16;;;23.18;40.49
80945;BME280;70400;50.934;11.590;2023-07-13T04:14:27;99877.56;;;22.72;41.55
80945;BME280;70400;50.934;11.590;2023-07-13T04:15:17;99881.22;;;22.16;43.21
80945;BME280;70400;50.934;11.590;2023-07-13T04:16:08;99882.59;;;21.81;43.87
80945;BME280;70400;50.934;11.590;2023-07-13T04:16:59;99881.53;;;21.19;45.46
80945;BME280;70400;50.934;11.590;2023-07-13T04:17:50;99884.63;;;20.77;46.16
80945;BME280;70400;50.934;11.590;2023-07-13T04:18:41;99884.00;;;20.82;46.48
80945;BME280;70400;50.934;11.590;2023-07-13T04:19:31;99876.34;;;21.24;46.04
80945;BME280;70400;50.934;11.590;2023-07-13T04:20:23;99878.97;;;21.37;45.33
80945;BME280;70400;50.934;11.590;2023-07-13T04:21:15;99877.94;;;21.38;45.06
80945;BME280;70400;50.934;11.590;2023-07-13T04:22:07;99884.66;;;21.16;45.71
80945;BME280;70400;50.934;11.590;2023-07-13T04:22:57;99885.06;;;21.13;45.67
80945;BME280;70400;50.934;11.590;2023-07-13T04:23:49;99881.31;;;21.20;45.84
80945;BME280;70400;50.934;11.590;2023-07-13T04:24:40;99881.00;;;21.42;45.28
80945;BME280;70400;50.934;11.590;2023-07-13T04:25:33;99883.22;;;21.52;44.79
80945;BME280;70400;50.934;11.590;2023-07-13T04:26:24;99877.41;;;21.55;44.87
80945;BME280;70400;50.934;11.590;2023-07-13T04:27:15;99883.22;;;21.13;46.02
80945;BME280;70400;50.934;11.590;2023-07-13T04:28:06;99874.78;;;21.10;46.06
80945;BME280;70400;50.934;11.590;2023-07-13T04:28:57;99881.44;;;21.00;46.24
80945;BME280;70400;50.934;11.590;2023-07-13T04:29:49;99888.91;;;20.85;46.66
80945;BME280;70400;50.934;11.590;2023-07-13T04:30:39;99883.00;;;20.70;47.37
80945;BME280;70400;50.934;11.590;2023-07-13T04:31:31;99878.53;;;20.44;47.89
80945;BME280;70400;50.934;11.590;2023-07-13T04:32:22;99882.25;;;20.56;47.69
80945;BME280;70400;50.934;11.590;2023-07-13T04:33:15;99879.50;;;20.63;47.46
80945;BME280;70400;50.934;11.590;2023-07-13T04:34:07;99881.38;;;20.69;47.52
80945;BME280;70400;50.934;11.590;2023-07-13T04:34:58;99891.22;;;20.75;47.00
80945;BME280;70400;50.934;11.590;2023-07-13T04:35:52;99888.94;;;20.78;47.12